sensor_id;sensor_type;location;lat;lon;timestamp;P1;durP1;ratioP1;P2;durP2;ratioP2
57217;SDS011;43078;52.972;6.482;2023-06-26T00:02:16;6.63;;;5.43;;
57217;SDS011;43078;52.972;6.482;2023-06-26T00:04:42;6.80;;;5.18;;
57217;SDS011;43078;52.972;6.482;2023-06-26T00:07:08;6.50;;;5.47;;
57217;SDS011;43078;52.972;6.482;2023-06-26T00:09:34;7.85;;;4.85;;
57217;SDS011;43078;52.972;6.482;2023-06-26T00:12:00;7.03;;;5.30;;
57217;SDS011;43078;52.972;6.482;2023-06-26T00:14:26;7.47;;;5.20;;
57217;SDS011;43078;52.972;6.482;2023-06-26T00:16:52;6.72;;;5.20;;
57217;SDS011;43078;52.972;6.482;2023-06-26T00:19:18;6.72;;;5.30;;
57217;SDS011;43078;52.972;6.482;2023-06-26T00:21:44;6.30;;;5.20;;
57217;SDS011;43078;52.972;6.482;2023-06-26T00:24:13;9.10;;;6.15;;
57217;SDS011;43078;52.972;6.482;2023-06-26T00:26:39;7.40;;;5.60;;
57217;SDS011;43078;52.972;6.482;2023-06-26T00:29:05;7.80;;;5.93;;
57217;SDS011;43078;52.972;6.482;2023-06-26T00:31:30;8.38;;;6.45;;
57217;SDS011;43078;52.972;6.482;2023-06-26T00:33:56;6.97;;;5.40;;
57217;SDS011;43078;52.972;6.482;2023-06-26T00:36:22;7.88;;;5.07;;
57217;SDS011;43078;52.972;6.482;2023-06-26T00:38:51;7.15;;;5.63;;
57217;SDS011;43078;52.972;6.482;2023-06-26T00:41:17;7.47;;;5.95;;
57217;SDS011;43078;52.972;6.482;2023-06-26T00:43:43;6.70;;;5.55;;
57217;SDS011;43078;52.972;6.482;2023-06-26T00:46:09;6.72;;;5.30;;
57217;SDS011;43078;52.972;6.482;2023-06-26T00:48:37;7.75;;;5.90;;
57217;SDS011;43078;52.972;6.482;2023-06-26T00:51:04;7.25;;;5.70;;
57217;SDS011;43078;52.972;6.482;2023-06-26T00:53:30;8.00;;;6.13;;
57217;SDS011;43078;52.972;6.482;2023-06-26T00:55:56;7.47;;;6.20;;
57217;SDS011;43078;52.972;6.482;2023-06-26T00:58:22;7.15;;;5.57;;
57217;SDS011;43078;52.972;6.482;2023-06-26T01:00:50;7.32;;;5.90;;
57217;SDS011;43078;52.972;6.482;2023-06-26T01:03:16;9.00;;;7.13;;
57217;SDS011;43078;52.972;6.482;2023-06-26T01:05:42;7.60;;;5.78;;
57217;SDS011;43078;52.972;6.482;2023-06-26T01:08:11;8.88;;;5.88;;
57217;SDS011;43078;52.972;6.482;2023-06-26T01:10:38;7.50;;;5.57;;
57217;SDS011;43078;52.972;6.482;2023-06-26T01:13:04;7.13;;;5.78;;
57217;SDS011;43078;52.972;6.482;2023-06-26T01:15:30;7.50;;;5.78;;
57217;SDS011;43078;52.972;6.482;2023-06-26T01:17:57;7.07;;;5.80;;
57217;SDS011;43078;52.972;6.482;2023-06-26T01:20:29;7.28;;;5.82;;
57217;SDS011;43078;52.972;6.482;2023-06-26T01:23:05;7.90;;;6.25;;
57217;SDS011;43078;52.972;6.482;2023-06-26T01:28:17;7.25;;;5.60;;
57217;SDS011;43078;52.972;6.482;2023-06-26T01:30:45;7.45;;;6.07;;
57217;SDS011;43078;52.972;6.482;2023-06-26T01:33:11;7.82;;;5.70;;
57217;SDS011;43078;52.972;6.482;2023-06-26T01:35:38;8.38;;;6.03;;
57217;SDS011;43078;52.972;6.482;2023-06-26T01:38:18;8.10;;;6.50;;
57217;SDS011;43078;52.972;6.482;2023-06-26T01:40:45;7.45;;;6.30;;
57217;SDS011;43078;52.972;6.482;2023-06-26T01:46:26;7.18;;;5.82;;
57217;SDS011;43078;52.972;6.482;2023-06-26T01:51:47;8.80;;;5.47;;
57217;SDS011;43078;52.972;6.482;2023-06-26T01:54:21;7.82;;;5.75;;
57217;SDS011;43078;52.972;6.482;2023-06-26T01:56:51;7.47;;;5.97;;
57217;SDS011;43078;52.972;6.482;2023-06-26T01:59:19;7.00;;;5.65;;
57217;SDS011;43078;52.972;6.482;2023-06-26T02:01:47;6.90;;;5.45;;
57217;SDS011;43078;52.972;6.482;2023-06-26T02:04:13;7.82;;;6.30;;
57217;SDS011;43078;52.972;6.482;2023-06-26T02:06:38;7.38;;;5.97;;
57217;SDS011;43078;52.972;6.482;2023-06-26T02:09:04;7.07;;;5.85;;
57217;SDS011;43078;52.972;6.482;2023-06-26T02:11:30;8.70;;;6.03;;
57217;SDS011;43078;52.972;6.482;2023-06-26T02:13:55;8.93;;;5.97;;
57217;SDS011;43078;52.972;6.482;2023-06-26T02:16:21;7.60;;;6.10;;
57217;SDS011;43078;52.972;6.482;2023-06-26T02:18:46;7.20;;;5.57;;
57217;SDS011;43078;52.972;6.482;2023-06-26T02:21:13;7.55;;;6.15;;
57217;SDS011;43078;52.972;6.482;2023-06-26T02:23:38;8.93;;;6.25;;
57217;SDS011;43078;52.972;6.482;2023-06-26T02:26:04;8.25;;;6.28;;
57217;SDS011;43078;52.972;6.482;2023-06-26T02:28:30;7.65;;;6.50;;
57217;SDS011;43078;52.972;6.482;2023-06-26T02:30:56;7.72;;;6.28;;
57217;SDS011;43078;52.972;6.482;2023-06-26T02:33:22;7.32;;;6.10;;
57217;SDS011;43078;52.972;6.482;2023-06-26T02:35:47;10.68;;;8.68;;
57217;SDS011;43078;52.972;6.482;2023-06-26T02:38:15;7.72;;;6.90;;
57217;SDS011;43078;52.972;6.482;2023-06-26T02:40:40;8.30;;;6.25;;
57217;SDS011;43078;52.972;6.482;2023-06-26T02:43:06;8.40;;;7.00;;
57217;SDS011;43078;52.972;6.482;2023-06-26T02:45:32;9.40;;;7.30;;
57217;SDS011;43078;52.972;6.482;2023-06-26T02:47:57;8.30;;;6.82;;
57217;SDS011;43078;52.972;6.482;2023-06-26T02:50:23;12.70;;;8.68;;
57217;SDS011;43078;52.972;6.482;2023-06-26T02:52:48;7.85;;;6.25;;
57217;SDS011;43078;52.972;6.482;2023-06-26T02:55:17;8.40;;;6.53;;
57217;SDS011;43078;52.972;6.482;2023-06-26T02:57:44;8.88;;;7.07;;
57217;SDS011;43078;52.972;6.482;2023-06-26T03:00:10;8.52;;;6.78;;
57217;SDS011;43078;52.972;6.482;2023-06-26T03:02:36;9.07;;;6.50;;
57217;SDS011;43078;52.972;6.482;2023-06-26T03:05:02;8.70;;;7.32;;
57217;SDS011;43078;52.972;6.482;2023-06-26T03:07:29;9.73;;;7.07;;
57217;SDS011;43078;52.972;6.482;2023-06-26T03:09:55;7.63;;;6.68;;
57217;SDS011;43078;52.972;6.482;2023-06-26T03:12:20;8.15;;;6.72;;
57217;SDS011;43078;52.972;6.482;2023-06-26T03:14:46;9.60;;;7.80;;
57217;SDS011;43078;52.972;6.482;2023-06-26T03:17:12;8.02;;;6.88;;
57217;SDS011;43078;52.972;6.482;2023-06-26T03:19:37;11.40;;;8.57;;
57217;SDS011;43078;52.972;6.482;2023-06-26T03:22:03;10.02;;;7.90;;
57217;SDS011;43078;52.972;6.482;2023-06-26T03:24:29;9.75;;;7.07;;
57217;SDS011;43078;52.972;6.482;2023-06-26T03:26:55;10.25;;;7.70;;
57217;SDS011;43078;52.972;6.482;2023-06-26T03:29:20;10.18;;;7.55;;
57217;SDS011;43078;52.972;6.482;2023-06-26T03:31:46;10.27;;;9.18;;
57217;SDS011;43078;52.972;6.482;2023-06-26T03:34:12;8.75;;;7.20;;
57217;SDS011;43078;52.972;6.482;2023-06-26T03:36:38;10.13;;;8.60;;
57217;SDS011;43078;52.972;6.482;2023-06-26T03:39:03;11.23;;;7.95;;
57217;SDS011;43078;52.972;6.482;2023-06-26T03:41:29;10.25;;;7.47;;
57217;SDS011;43078;52.972;6.482;2023-06-26T03:43:55;9.25;;;7.57;;
57217;SDS011;43078;52.972;6.482;2023-06-26T03:46:21;8.30;;;6.72;;
57217;SDS011;43078;52.972;6.482;2023-06-26T03:48:47;11.55;;;7.80;;
57217;SDS011;43078;52.972;6.482;2023-06-26T03:51:13;10.68;;;8.68;;
57217;SDS011;43078;52.972;6.482;2023-06-26T03:53:40;8.93;;;7.50;;
57217;SDS011;43078;52.972;6.482;2023-06-26T03:56:05;9.52;;;6.90;;
57217;SDS011;43078;52.972;6.482;2023-06-26T03:58:31;8.00;;;6.47;;
57217;SDS011;43078;52.972;6.482;2023-06-26T04:00:57;8.63;;;6.50;;
57217;SDS011;43078;52.972;6.482;2023-06-26T04:03:23;9.48;;;6.32;;
57217;SDS011;43078;52.972;6.482;2023-06-26T04:05:49;9.95;;;7.25;;
57217;SDS011;43078;52.972;6.482;2023-06-26T04:08:15;7.68;;;6.65;;
57217;SDS011;43078;52.972;6.482;2023-06-26T04:10:40;7.30;;;5.88;;
57217;SDS011;43078;52.972;6.482;2023-06-26T04:13:06;7.32;;;6.28;;
57217;SDS011;43078;52.972;6.482;2023-06-26T04:15:32;9.48;;;6.07;;
57217;SDS011;43078;52.972;6.482;2023-06-26T04:17:57;8.52;;;6.63;;
57217;SDS011;43078;52.972;6.482;2023-06-26T04:20:23;7.90;;;6.15;;
57217;SDS011;43078;52.972;6.482;2023-06-26T04:22:49;10.13;;;6.75;;
57217;SDS011;43078;52.972;6.482;2023-06-26T04:25:14;8.90;;;5.90;;
57217;SDS011;43078;52.972;6.482;2023-06-26T04:27:40;9.20;;;6.10;;
57217;SDS011;43078;52.972;6.482;2023-06-26T04:30:06;10.68;;;6.75;;
57217;SDS011;43078;52.972;6.482;2023-06-26T04:32:32;11.52;;;7.03;;
57217;SDS011;43078;52.972;6.482;2023-06-26T04:34:58;10.98;;;6.95;;
57217;SDS011;43078;52.972;6.482;2023-06-26T04:37:24;8.85;;;6.75;;
57217;SDS011;43078;52.972;6.482;2023-06-26T04:39:49;9.73;;;6.45;;
57217;SDS011;43078;52.972;6.482;2023-06-26T04:42:15;10.82;;;6.30;;
57217;SDS011;43078;52.972;6.482;2023-06-26T04:44:41;9.35;;;5.90;;
57217;SDS011;43078;52.972;6.482;2023-06-26T04:47:10;11.00;;;6.50;;
57217;SDS011;43078;52.972;6.482;2023-06-26T04:49:36;13.80;;;6.45;;
57217;SDS011;43078;52.972;6.482;2023-06-26T04:52:01;10.60;;;6.15;;
57217;SDS011;43078;52.972;6.482;2023-06-26T04:54:27;12.43;;;7.13;;
57217;SDS011;43078;52.972;6.482;2023-06-26T04:56:53;12.70;;;6.95;;
57217;SDS011;43078;52.972;6.482;2023-06-26T04:59:19;14.30;;;6.80;;
57217;SDS011;43078;52.972;6.482;2023-06-26T05:01:45;14.45;;;6.88;;
57217;SDS011;43078;52.972;6.482;2023-06-26T05:04:13;10.82;;;6.43;;
57217;SDS011;43078;52.972;6.482;2023-06-26T05:06:42;11.98;;;6.75;;
57217;SDS011;43078;52.972;6.482;2023-06-26T05:09:08;14.30;;;7.70;;
57217;SDS011;43078;52.972;6.482;2023-06-26T05:11:35;13.13;;;7.68;;
57217;SDS011;43078;52.972;6.482;2023-06-26T05:14:00;15.18;;;8.30;;
57217;SDS011;43078;52.972;6.482;2023-06-26T05:16:26;14.32;;;7.18;;
57217;SDS011;43078;52.972;6.482;2023-06-26T05:18:52;15.70;;;8.18;;
57217;SDS011;43078;52.972;6.482;2023-06-26T05:21:19;18.65;;;7.93;;
57217;SDS011;43078;52.972;6.482;2023-06-26T05:23:45;13.35;;;7.35;;
57217;SDS011;43078;52.972;6.482;2023-06-26T05:26:12;14.90;;;7.80;;
57217;SDS011;43078;52.972;6.482;2023-06-26T05:28:38;15.10;;;7.65;;
57217;SDS011;43078;52.972;6.482;2023-06-26T05:31:04;12.45;;;7.00;;
57217;SDS011;43078;52.972;6.482;2023-06-26T05:33:30;17.75;;;7.57;;
57217;SDS011;43078;52.972;6.482;2023-06-26T05:35:58;13.88;;;7.00;;
57217;SDS011;43078;52.972;6.482;2023-06-26T05:38:25;13.77;;;6.95;;
57217;SDS011;43078;52.972;6.482;2023-06-26T05:40:51;12.93;;;6.57;;
57217;SDS011;43078;52.972;6.482;2023-06-26T05:43:17;10.40;;;5.85;;
57217;SDS011;43078;52.972;6.482;2023-06-26T05:45:46;15.02;;;6.47;;
57217;SDS011;43078;52.972;6.482;2023-06-26T05:48:13;12.23;;;5.85;;
57217;SDS011;43078;52.972;6.482;2023-06-26T05:50:39;13.40;;;5.45;;
57217;SDS011;43078;52.972;6.482;2023-06-26T05:53:07;10.93;;;4.80;;
57217;SDS011;43078;52.972;6.482;2023-06-26T05:55:33;10.40;;;5.32;;
57217;SDS011;43078;52.972;6.482;2023-06-26T05:57:59;13.55;;;5.50;;
57217;SDS011;43078;52.972;6.482;2023-06-26T06:00:27;8.93;;;4.85;;
57217;SDS011;43078;52.972;6.482;2023-06-26T06:02:53;11.05;;;4.63;;
57217;SDS011;43078;52.972;6.482;2023-06-26T06:05:22;9.10;;;4.28;;
57217;SDS011;43078;52.972;6.482;2023-06-26T06:07:48;10.73;;;4.53;;
57217;SDS011;43078;52.972;6.482;2023-06-26T06:10:14;11.55;;;4.25;;
57217;SDS011;43078;52.972;6.482;2023-06-26T06:12:40;9.93;;;4.05;;
57217;SDS011;43078;52.972;6.482;2023-06-26T06:15:06;10.35;;;4.10;;
57217;SDS011;43078;52.972;6.482;2023-06-26T06:17:32;11.93;;;3.67;;
57217;SDS011;43078;52.972;6.482;2023-06-26T06:19:57;8.07;;;3.97;;
57217;SDS011;43078;52.972;6.482;2023-06-26T06:22:23;9.60;;;3.45;;
57217;SDS011;43078;52.972;6.482;2023-06-26T06:24:49;12.63;;;4.03;;
57217;SDS011;43078;52.972;6.482;2023-06-26T06:27:15;11.88;;;3.92;;
57217;SDS011;43078;52.972;6.482;2023-06-26T06:29:41;8.88;;;3.28;;
57217;SDS011;43078;52.972;6.482;2023-06-26T06:32:07;11.13;;;3.78;;
57217;SDS011;43078;52.972;6.482;2023-06-26T06:34:33;9.55;;;3.33;;
57217;SDS011;43078;52.972;6.482;2023-06-26T06:36:58;10.60;;;3.60;;
57217;SDS011;43078;52.972;6.482;2023-06-26T06:39:24;10.35;;;3.40;;
57217;SDS011;43078;52.972;6.482;2023-06-26T06:41:50;11.07;;;3.22;;
57217;SDS011;43078;52.972;6.482;2023-06-26T06:44:15;12.40;;;3.13;;
57217;SDS011;43078;52.972;6.482;2023-06-26T06:46:41;8.88;;;2.70;;
57217;SDS011;43078;52.972;6.482;2023-06-26T06:49:07;9.82;;;3.15;;
57217;SDS011;43078;52.972;6.482;2023-06-26T06:51:33;9.73;;;2.80;;
57217;SDS011;43078;52.972;6.482;2023-06-26T06:53:59;9.15;;;2.70;;
57217;SDS011;43078;52.972;6.482;2023-06-26T06:56:25;8.85;;;2.75;;
57217;SDS011;43078;52.972;6.482;2023-06-26T06:58:50;8.65;;;2.85;;
57217;SDS011;43078;52.972;6.482;2023-06-26T07:01:16;8.75;;;2.83;;
57217;SDS011;43078;52.972;6.482;2023-06-26T07:03:42;8.32;;;2.60;;
57217;SDS011;43078;52.972;6.482;2023-06-26T07:06:07;8.18;;;2.70;;
57217;SDS011;43078;52.972;6.482;2023-06-26T07:08:33;10.25;;;2.40;;
57217;SDS011;43078;52.972;6.482;2023-06-26T07:10:59;7.50;;;2.40;;
57217;SDS011;43078;52.972;6.482;2023-06-26T07:13:25;7.68;;;2.40;;
57217;SDS011;43078;52.972;6.482;2023-06-26T07:15:50;10.30;;;2.70;;
57217;SDS011;43078;52.972;6.482;2023-06-26T07:18:16;12.23;;;2.35;;
57217;SDS011;43078;52.972;6.482;2023-06-26T07:20:42;10.95;;;2.50;;
57217;SDS011;43078;52.972;6.482;2023-06-26T07:23:08;6.97;;;2.38;;
57217;SDS011;43078;52.972;6.482;2023-06-26T07:25:34;7.40;;;2.00;;
57217;SDS011;43078;52.972;6.482;2023-06-26T07:28:00;7.10;;;2.45;;
57217;SDS011;43078;52.972;6.482;2023-06-26T07:30:25;7.57;;;2.17;;
57217;SDS011;43078;52.972;6.482;2023-06-26T07:32:51;4.95;;;1.90;;
57217;SDS011;43078;52.972;6.482;2023-06-26T07:35:17;6.25;;;2.00;;
57217;SDS011;43078;52.972;6.482;2023-06-26T07:37:42;7.65;;;2.20;;
57217;SDS011;43078;52.972;6.482;2023-06-26T07:40:09;8.85;;;2.00;;
57217;SDS011;43078;52.972;6.482;2023-06-26T07:42:35;6.40;;;2.05;;
57217;SDS011;43078;52.972;6.482;2023-06-26T07:45:01;5.55;;;1.90;;
57217;SDS011;43078;52.972;6.482;2023-06-26T07:47:27;9.05;;;1.73;;
57217;SDS011;43078;52.972;6.482;2023-06-26T07:49:52;7.22;;;1.80;;
57217;SDS011;43078;52.972;6.482;2023-06-26T07:52:18;8.45;;;2.13;;
57217;SDS011;43078;52.972;6.482;2023-06-26T07:54:44;7.38;;;2.05;;
57217;SDS011;43078;52.972;6.482;2023-06-26T07:57:10;7.50;;;1.88;;
57217;SDS011;43078;52.972;6.482;2023-06-26T07:59:37;7.35;;;1.70;;
57217;SDS011;43078;52.972;6.482;2023-06-26T08:02:03;6.95;;;1.83;;
57217;SDS011;43078;52.972;6.482;2023-06-26T08:04:30;6.45;;;1.73;;
57217;SDS011;43078;52.972;6.482;2023-06-26T08:06:57;6.75;;;1.60;;
57217;SDS011;43078;52.972;6.482;2023-06-26T08:09:24;6.03;;;1.70;;
57217;SDS011;43078;52.972;6.482;2023-06-26T08:11:51;6.07;;;1.70;;
57217;SDS011;43078;52.972;6.482;2023-06-26T08:14:17;5.40;;;1.83;;
57217;SDS011;43078;52.972;6.482;2023-06-26T08:16:43;5.38;;;1.75;;
57217;SDS011;43078;52.972;6.482;2023-06-26T08:19:09;6.28;;;1.77;;
57217;SDS011;43078;52.972;6.482;2023-06-26T08:21:36;5.90;;;1.73;;
57217;SDS011;43078;52.972;6.482;2023-06-26T08:24:02;4.80;;;1.80;;
57217;SDS011;43078;52.972;6.482;2023-06-26T08:26:27;3.60;;;1.50;;
57217;SDS011;43078;52.972;6.482;2023-06-26T08:28:53;5.72;;;1.75;;
57217;SDS011;43078;52.972;6.482;2023-06-26T08:31:19;5.22;;;1.83;;
57217;SDS011;43078;52.972;6.482;2023-06-26T08:33:45;6.10;;;1.83;;
57217;SDS011;43078;52.972;6.482;2023-06-26T08:36:11;6.03;;;1.95;;
57217;SDS011;43078;52.972;6.482;2023-06-26T08:38:37;16.58;;;2.28;;
57217;SDS011;43078;52.972;6.482;2023-06-26T08:41:05;5.15;;;1.70;;
57217;SDS011;43078;52.972;6.482;2023-06-26T08:43:31;12.57;;;2.28;;
57217;SDS011;43078;52.972;6.482;2023-06-26T08:45:58;4.20;;;1.50;;
57217;SDS011;43078;52.972;6.482;2023-06-26T08:48:24;5.55;;;1.70;;
57217;SDS011;43078;52.972;6.482;2023-06-26T08:50:52;5.80;;;1.90;;
57217;SDS011;43078;52.972;6.482;2023-06-26T08:56:07;4.45;;;1.67;;
57217;SDS011;43078;52.972;6.482;2023-06-26T08:58:34;6.57;;;1.92;;
57217;SDS011;43078;52.972;6.482;2023-06-26T09:01:02;5.40;;;1.55;;
57217;SDS011;43078;52.972;6.482;2023-06-26T09:03:29;5.20;;;2.00;;
57217;SDS011;43078;52.972;6.482;2023-06-26T09:05:56;5.47;;;2.10;;
57217;SDS011;43078;52.972;6.482;2023-06-26T09:08:22;6.75;;;2.00;;
57217;SDS011;43078;52.972;6.482;2023-06-26T09:10:47;8.15;;;2.05;;
57217;SDS011;43078;52.972;6.482;2023-06-26T09:13:13;7.15;;;2.30;;
57217;SDS011;43078;52.972;6.482;2023-06-26T09:15:42;4.43;;;1.95;;
57217;SDS011;43078;52.972;6.482;2023-06-26T09:18:09;6.00;;;2.17;;
57217;SDS011;43078;52.972;6.482;2023-06-26T09:20:35;6.95;;;1.92;;
57217;SDS011;43078;52.972;6.482;2023-06-26T09:23:01;8.40;;;1.80;;
57217;SDS011;43078;52.972;6.482;2023-06-26T09:25:27;7.20;;;2.05;;
57217;SDS011;43078;52.972;6.482;2023-06-26T09:27:54;6.88;;;1.90;;
57217;SDS011;43078;52.972;6.482;2023-06-26T09:30:20;6.40;;;1.80;;
57217;SDS011;43078;52.972;6.482;2023-06-26T09:32:46;5.20;;;1.83;;
57217;SDS011;43078;52.972;6.482;2023-06-26T09:35:12;5.00;;;2.08;;
57217;SDS011;43078;52.972;6.482;2023-06-26T09:37:40;4.75;;;1.98;;
57217;SDS011;43078;52.972;6.482;2023-06-26T09:40:05;8.85;;;2.08;;
57217;SDS011;43078;52.972;6.482;2023-06-26T09:42:32;7.10;;;2.10;;
57217;SDS011;43078;52.972;6.482;2023-06-26T09:44:57;9.82;;;2.50;;
57217;SDS011;43078;52.972;6.482;2023-06-26T09:47:23;8.68;;;2.30;;
57217;SDS011;43078;52.972;6.482;2023-06-26T09:49:49;8.13;;;2.10;;
57217;SDS011;43078;52.972;6.482;2023-06-26T09:52:17;8.02;;;2.10;;
57217;SDS011;43078;52.972;6.482;2023-06-26T09:54:44;6.57;;;2.05;;
57217;SDS011;43078;52.972;6.482;2023-06-26T09:57:11;6.97;;;1.75;;
57217;SDS011;43078;52.972;6.482;2023-06-26T09:59:38;5.65;;;1.83;;
57217;SDS011;43078;52.972;6.482;2023-06-26T10:02:07;7.90;;;1.80;;
57217;SDS011;43078;52.972;6.482;2023-06-26T10:04:35;6.55;;;1.95;;
57217;SDS011;43078;52.972;6.482;2023-06-26T10:07:01;6.28;;;2.08;;
57217;SDS011;43078;52.972;6.482;2023-06-26T10:09:29;7.93;;;2.38;;
57217;SDS011;43078;52.972;6.482;2023-06-26T10:11:57;6.47;;;2.03;;
57217;SDS011;43078;52.972;6.482;2023-06-26T10:14:26;5.03;;;2.00;;
57217;SDS011;43078;52.972;6.482;2023-06-26T10:16:59;5.57;;;2.03;;
57217;SDS011;43078;52.972;6.482;2023-06-26T10:19:28;7.90;;;1.90;;
57217;SDS011;43078;52.972;6.482;2023-06-26T10:21:57;8.77;;;2.30;;
57217;SDS011;43078;52.972;6.482;2023-06-26T10:24:28;8.52;;;2.10;;
57217;SDS011;43078;52.972;6.482;2023-06-26T10:27:02;6.47;;;2.08;;
57217;SDS011;43078;52.972;6.482;2023-06-26T10:29:33;6.97;;;2.08;;
57217;SDS011;43078;52.972;6.482;2023-06-26T10:32:01;10.13;;;2.50;;
57217;SDS011;43078;52.972;6.482;2023-06-26T10:34:29;8.68;;;1.90;;
57217;SDS011;43078;52.972;6.482;2023-06-26T10:36:58;4.53;;;1.50;;
57217;SDS011;43078;52.972;6.482;2023-06-26T10:39:26;8.70;;;1.70;;
57217;SDS011;43078;52.972;6.482;2023-06-26T10:41:54;9.55;;;1.70;;
57217;SDS011;43078;52.972;6.482;2023-06-26T10:44:20;9.35;;;2.00;;
57217;SDS011;43078;52.972;6.482;2023-06-26T10:49:17;5.60;;;2.05;;
57217;SDS011;43078;52.972;6.482;2023-06-26T10:51:48;6.60;;;2.10;;
57217;SDS011;43078;52.972;6.482;2023-06-26T10:54:19;7.47;;;2.08;;
57217;SDS011;43078;52.972;6.482;2023-06-26T10:56:53;7.25;;;1.90;;
57217;SDS011;43078;52.972;6.482;2023-06-26T10:59:27;7.95;;;1.85;;
57217;SDS011;43078;52.972;6.482;2023-06-26T11:02:02;6.22;;;1.75;;
57217;SDS011;43078;52.972;6.482;2023-06-26T11:04:43;6.43;;;1.92;;
57217;SDS011;43078;52.972;6.482;2023-06-26T11:07:20;9.35;;;1.92;;
57217;SDS011;43078;52.972;6.482;2023-06-26T11:10:00;11.00;;;2.13;;
57217;SDS011;43078;52.972;6.482;2023-06-26T11:12:44;8.70;;;2.33;;
57217;SDS011;43078;52.972;6.482;2023-06-26T11:15:16;7.50;;;2.10;;
57217;SDS011;43078;52.972;6.482;2023-06-26T11:17:44;11.52;;;2.10;;
57217;SDS011;43078;52.972;6.482;2023-06-26T11:20:10;10.18;;;1.80;;
57217;SDS011;43078;52.972;6.482;2023-06-26T11:22:38;9.00;;;2.33;;
57217;SDS011;43078;52.972;6.482;2023-06-26T11:25:05;8.43;;;1.80;;
57217;SDS011;43078;52.972;6.482;2023-06-26T11:30:08;6.07;;;1.95;;
57217;SDS011;43078;52.972;6.482;2023-06-26T11:32:39;7.85;;;1.75;;
57217;SDS011;43078;52.972;6.482;2023-06-26T11:35:05;7.55;;;2.08;;
57217;SDS011;43078;52.972;6.482;2023-06-26T11:37:31;6.65;;;1.65;;
57217;SDS011;43078;52.972;6.482;2023-06-26T11:39:57;6.65;;;2.10;;
57217;SDS011;43078;52.972;6.482;2023-06-26T11:42:23;8.13;;;1.85;;
57217;SDS011;43078;52.972;6.482;2023-06-26T11:44:50;13.75;;;1.77;;
57217;SDS011;43078;52.972;6.482;2023-06-26T11:47:18;5.07;;;1.50;;
57217;SDS011;43078;52.972;6.482;2023-06-26T11:49:44;9.27;;;1.48;;
57217;SDS011;43078;52.972;6.482;2023-06-26T11:52:12;7.88;;;1.58;;
57217;SDS011;43078;52.972;6.482;2023-06-26T11:54:38;9.55;;;1.75;;
57217;SDS011;43078;52.972;6.482;2023-06-26T11:57:04;8.40;;;1.45;;
57217;SDS011;43078;52.972;6.482;2023-06-26T11:59:34;5.70;;;1.30;;
57217;SDS011;43078;52.972;6.482;2023-06-26T12:02:04;15.40;;;1.80;;
57217;SDS011;43078;52.972;6.482;2023-06-26T12:04:31;7.40;;;1.20;;
57217;SDS011;43078;52.972;6.482;2023-06-26T12:06:59;12.85;;;1.50;;
57217;SDS011;43078;52.972;6.482;2023-06-26T12:09:25;9.52;;;1.70;;
57217;SDS011;43078;52.972;6.482;2023-06-26T12:11:55;9.93;;;1.60;;
57217;SDS011;43078;52.972;6.482;2023-06-26T12:14:22;8.88;;;1.65;;
57217;SDS011;43078;52.972;6.482;2023-06-26T12:16:50;7.28;;;1.70;;
57217;SDS011;43078;52.972;6.482;2023-06-26T12:19:17;5.28;;;1.38;;
57217;SDS011;43078;52.972;6.482;2023-06-26T12:21:48;8.35;;;1.58;;
57217;SDS011;43078;52.972;6.482;2023-06-26T12:24:20;4.15;;;1.15;;
57217;SDS011;43078;52.972;6.482;2023-06-26T12:26:52;9.63;;;2.00;;
57217;SDS011;43078;52.972;6.482;2023-06-26T12:29:21;7.22;;;1.55;;
57217;SDS011;43078;52.972;6.482;2023-06-26T12:31:57;4.97;;;1.40;;
57217;SDS011;43078;52.972;6.482;2023-06-26T12:34:33;5.88;;;1.65;;
57217;SDS011;43078;52.972;6.482;2023-06-26T12:37:02;8.50;;;1.30;;
57217;SDS011;43078;52.972;6.482;2023-06-26T12:39:29;6.07;;;1.35;;
57217;SDS011;43078;52.972;6.482;2023-06-26T12:42:13;6.78;;;1.75;;
57217;SDS011;43078;52.972;6.482;2023-06-26T12:44:52;7.20;;;1.33;;
57217;SDS011;43078;52.972;6.482;2023-06-26T12:47:19;7.75;;;1.88;;
57217;SDS011;43078;52.972;6.482;2023-06-26T12:49:50;6.30;;;1.48;;
57217;SDS011;43078;52.972;6.482;2023-06-26T12:52:16;10.18;;;1.45;;
57217;SDS011;43078;52.972;6.482;2023-06-26T12:54:46;7.97;;;1.33;;
57217;SDS011;43078;52.972;6.482;2023-06-26T12:57:15;9.35;;;1.70;;
57217;SDS011;43078;52.972;6.482;2023-06-26T12:59:41;10.45;;;1.90;;
57217;SDS011;43078;52.972;6.482;2023-06-26T13:02:08;9.02;;;1.92;;
57217;SDS011;43078;52.972;6.482;2023-06-26T13:04:34;8.88;;;1.52;;
57217;SDS011;43078;52.972;6.482;2023-06-26T13:07:00;9.57;;;1.50;;
57217;SDS011;43078;52.972;6.482;2023-06-26T13:09:26;13.20;;;1.70;;
57217;SDS011;43078;52.972;6.482;2023-06-26T13:11:54;11.10;;;1.90;;
57217;SDS011;43078;52.972;6.482;2023-06-26T13:14:20;6.45;;;1.50;;
57217;SDS011;43078;52.972;6.482;2023-06-26T13:16:46;6.18;;;1.60;;
57217;SDS011;43078;52.972;6.482;2023-06-26T13:19:12;8.70;;;1.67;;
57217;SDS011;43078;52.972;6.482;2023-06-26T13:21:38;6.82;;;1.65;;
57217;SDS011;43078;52.972;6.482;2023-06-26T13:24:04;6.97;;;1.50;;
57217;SDS011;43078;52.972;6.482;2023-06-26T13:26:30;6.40;;;1.77;;
57217;SDS011;43078;52.972;6.482;2023-06-26T13:28:56;6.53;;;1.48;;
57217;SDS011;43078;52.972;6.482;2023-06-26T13:31:22;8.63;;;1.65;;
57217;SDS011;43078;52.972;6.482;2023-06-26T13:33:48;8.23;;;1.50;;
57217;SDS011;43078;52.972;6.482;2023-06-26T13:36:14;9.05;;;1.70;;
57217;SDS011;43078;52.972;6.482;2023-06-26T13:38:41;6.50;;;1.50;;
57217;SDS011;43078;52.972;6.482;2023-06-26T13:41:06;9.05;;;1.73;;
57217;SDS011;43078;52.972;6.482;2023-06-26T13:43:32;7.20;;;1.70;;
57217;SDS011;43078;52.972;6.482;2023-06-26T13:45:58;5.75;;;1.48;;
57217;SDS011;43078;52.972;6.482;2023-06-26T13:48:24;6.43;;;1.50;;
57217;SDS011;43078;52.972;6.482;2023-06-26T13:50:50;6.53;;;1.70;;
57217;SDS011;43078;52.972;6.482;2023-06-26T13:53:15;5.53;;;1.60;;
57217;SDS011;43078;52.972;6.482;2023-06-26T13:55:41;7.78;;;1.38;;
57217;SDS011;43078;52.972;6.482;2023-06-26T13:58:08;6.60;;;1.38;;
57217;SDS011;43078;52.972;6.482;2023-06-26T14:00:34;9.35;;;1.48;;
57217;SDS011;43078;52.972;6.482;2023-06-26T14:03:01;6.88;;;1.20;;
57217;SDS011;43078;52.972;6.482;2023-06-26T14:05:31;10.40;;;1.25;;
57217;SDS011;43078;52.972;6.482;2023-06-26T14:08:04;6.25;;;1.50;;
57217;SDS011;43078;52.972;6.482;2023-06-26T14:10:33;4.85;;;1.27;;
57217;SDS011;43078;52.972;6.482;2023-06-26T14:13:02;8.57;;;1.45;;
57217;SDS011;43078;52.972;6.482;2023-06-26T14:15:29;6.43;;;1.40;;
57217;SDS011;43078;52.972;6.482;2023-06-26T14:17:54;8.38;;;1.17;;
57217;SDS011;43078;52.972;6.482;2023-06-26T14:20:21;5.20;;;1.20;;
57217;SDS011;43078;52.972;6.482;2023-06-26T14:22:49;5.35;;;1.52;;
57217;SDS011;43078;52.972;6.482;2023-06-26T14:25:15;6.60;;;1.40;;
57217;SDS011;43078;52.972;6.482;2023-06-26T14:27:41;7.65;;;1.42;;
57217;SDS011;43078;52.972;6.482;2023-06-26T14:30:07;5.72;;;1.38;;
57217;SDS011;43078;52.972;6.482;2023-06-26T14:32:34;7.85;;;1.60;;
57217;SDS011;43078;52.972;6.482;2023-06-26T14:35:00;6.60;;;1.40;;
57217;SDS011;43078;52.972;6.482;2023-06-26T14:37:28;8.57;;;1.48;;
57217;SDS011;43078;52.972;6.482;2023-06-26T14:39:55;5.03;;;1.10;;
57217;SDS011;43078;52.972;6.482;2023-06-26T14:42:20;7.82;;;1.50;;
57217;SDS011;43078;52.972;6.482;2023-06-26T14:44:46;5.70;;;1.67;;
57217;SDS011;43078;52.972;6.482;2023-06-26T14:47:18;7.53;;;1.60;;
57217;SDS011;43078;52.972;6.482;2023-06-26T14:49:44;8.23;;;1.55;;
57217;SDS011;43078;52.972;6.482;2023-06-26T14:52:10;5.57;;;1.33;;
57217;SDS011;43078;52.972;6.482;2023-06-26T14:54:36;6.13;;;1.40;;
57217;SDS011;43078;52.972;6.482;2023-06-26T14:57:02;7.40;;;1.40;;
57217;SDS011;43078;52.972;6.482;2023-06-26T14:59:29;8.38;;;1.60;;
57217;SDS011;43078;52.972;6.482;2023-06-26T15:01:54;8.70;;;1.63;;